• Join FlightAware (Why Join?)
  • Login
  • US Flag 
12:11AM EDT


 

Airport Tracker/Info


-or-


 

Live Flight TrackerFlight Track Log ✈ AWI3551 ✈ 07-May-2013 ✈ KBUF - KPHL

Flight Track Log - Related Links

Times and Time Zones

All times are in EDT time to prevent confusion due to time zone crossing. See the AWI3551 flight status page for this flight to view local times or setup timezone preferences in your user account.

Time Position Orientation Groundspeed Altitude Reporting Facility
EDT Latitude Longitude Course Direction KTS MPH feet Rate Location/Type
05:27AM 42.9500 -78.7167 180° South 166 191 1,400  Level Buffalo TRACON
05:27AM 42.9667 -78.7000 36° Northeast 159 183 2,100 2,340 Climbing Buffalo TRACON
05:28AM 42.9833 -78.6333 71° East 216 249 4,500 2,400 Climbing Buffalo TRACON
05:29AM 42.9911 -78.5878 77° East 231 266 5,800 2,400 Climbing Cleveland Center
05:30AM 42.6240 -78.6848 172° South  Level FlightAware Approximate
05:30AM 42.9481 -78.5014 124° Southeast 265 305 8,100  Level Cleveland Center
05:31AM 42.5213 -78.6647 173° South  Level FlightAware Approximate
05:31AM 42.8850 -78.4808 167° South 272 313 10,100  Level Cleveland Center
05:32AM 42.4182 -78.6500 180° South  Level FlightAware Approximate
05:32AM 42.8000 -78.5006 190° South 279 321 13,100  Level Cleveland Center
05:33AM 42.7169 -78.5175 189° South 284 327 15,400 2,160 Climbing Cleveland Center
05:34AM 42.6275 -78.5344 188° South 308 354 17,500 1,800 Climbing Cleveland Center
05:35AM 42.5342 -78.5544 189° South 328 377 19,000 1,560 Climbing Cleveland Center
05:36AM 42.4522 -78.5206 163° South 341 392 20,700 1,500 Climbing Cleveland Center
05:37AM 42.3636 -78.4586 153° Southeast 336 387 22,100 1,380 Climbing Cleveland Center
05:38AM 42.2728 -78.3972 153° Southeast 346 398 23,500 1,380 Climbing Cleveland Center
05:39AM 42.1839 -78.3331 152° Southeast 356 410 24,900 720 Climbing Cleveland Center
05:40AM 42.0867 -78.2664 153° Southeast 379 436 25,000  Climbing Cleveland Center
05:41AM 41.9872 -78.1975 153° Southeast 390 449 25,000  Level Cleveland Center
05:43AM 41.7750 -78.0556 153° Southeast 404 465 25,000  Level New York Center
05:44AM 41.6772 -77.9864 152° Southeast 404 465 25,000  Level New York Center
05:45AM 41.5792 -77.9206 153° Southeast 404 465 25,000  Level New York Center
05:46AM 41.4850 -77.8578 153° Southeast 397 457 25,000  Level New York Center
05:47AM 41.3928 -77.7956 153° Southeast 387 445 25,000  Level New York Center
05:48AM 41.2967 -77.7303 153° Southeast 382 440 25,000  Level New York Center
05:49AM 41.2044 -77.6683 153° Southeast 382 440 25,000  Level New York Center
05:50AM 41.1119 -77.6067 153° Southeast 377 434 25,000 -240 Level New York Center
05:51AM 41.0172 -77.5531 157° South 377 434 24,600 -840 Descending New York Center
05:52AM 40.9203 -77.5353 172° South 365 420 23,400 -1,200 Descending New York Center
05:53AM 40.8294 -77.5181 172° South 345 397 22,200 -1,200 Descending New York Center
05:54AM 40.7408 -77.5011 172° South 334 384 21,000 -1,260 Descending New York Center
05:55AM 40.6519 -77.4867 173° South 329 379 19,800 -1,200 Descending New York Center
05:56AM 40.5672 -77.4758 174° South 337 388 18,700 -900 Descending New York Center
05:57AM 40.4703 -77.4581 172° South 332 382 18,000 -360 Descending New York Center
05:58AM 40.3897 -77.4450 173° South 325 374 18,000  Level New York Center
05:59AM 40.2958 -77.4058 162° South 325 374 18,000  Level New York Center
06:00AM 40.2767 -77.3033 104° East 285 328 18,000  Level New York Center
06:01AM 40.2606 -77.1767 99° East 309 356 18,000  Level New York Center
06:02AM 40.2511 -77.0833 98° East 320 368 18,000 -120 Level New York Center
06:03AM 40.2303 -76.9236 100° East 356 410 17,800 -720 Descending New York Center
06:04AM 40.2125 -76.7836 99° East 375 432 16,600 -1,200 Descending New York Center
06:05AM 40.1961 -76.6517 99° East 375 432 15,400 -1,200 Descending New York Center
06:06AM 40.1817 -76.5228 98° East 358 412 14,200 -1,200 Descending New York Center
06:07AM 40.1664 -76.4072 100° East 358 412 13,100 -1,200 Descending New York Center
06:08AM 40.1500 -76.2703 99° East 358 412 11,800 -1,320 Descending New York Center
06:09AM 40.1308 -76.1436 101° East 353 406 10,600 -1,140 Descending New York Center
06:10AM 40.1189 -76.0397 99° East 315 362 9,600 -840 Descending New York Center
06:11AM 40.1044 -75.9436 101° East 284 327 9,000 -660 Descending New York Center
06:12AM 40.0919 -75.8450 99° East 271 312 8,300 -660 Descending New York Center
06:13AM 40.0794 -75.7464 99° East 271 312 7,700 -660 Descending New York Center
06:14AM 40.0911 -75.6658 79° East 265 305 7,000 -720 Descending New York Center
06:15AM 40.1486 -75.5883 46° Northeast 244 281 6,300 -540 Descending New York Center
06:16AM 40.1967 -75.5292 43° Northeast 258 297 6,000 -180 Descending New York Center
06:17AM 40.2519 -75.4542 46° Northeast 268 308 6,000  Level New York Center
06:18AM 40.2156 -75.3728 120° Southeast 195 224 6,000  Level New York Center
06:19AM 40.1597 -75.3581 169° South 205 236 6,000  Level New York Center
06:20AM 40.1150 -75.3878 207° Southwest 199 229 6,000  Level New York Center
06:21AM 40.0572 -75.4192 203° Southwest 213 245 6,000  Level New York Center
06:22AM 39.9667 -75.4000 171° South 198 228 6,000  Level Philadelphia TRACON
06:23AM 39.9333 -75.4167 201° Southwest 217 250 6,000  Level Philadelphia TRACON
06:24AM 39.9333 -75.5000 270° West 197 227 6,000 -120 Level Philadelphia TRACON
06:25AM 39.9167 -75.5667 252° West 196 226 5,800 -480 Descending Philadelphia TRACON
06:26AM 39.9000 -75.6333 252° West 185 213 5,000 -420 Descending Philadelphia TRACON
06:27AM 39.8667 -75.6833 229° Southwest 188 216 5,000 -60 Level Philadelphia TRACON
06:28AM 39.8333 -75.7500 237° Southwest 187 215 4,900 -480 Descending Philadelphia TRACON
06:29AM 39.8000 -75.7500 180° South 163 188 4,100 -480 Descending Philadelphia TRACON
06:30AM 39.7833 -75.6833 108° East 157 181 4,000 -60 Descending Philadelphia TRACON
06:31AM 39.7833 -75.6333 90° East 173 199 4,000  Level Philadelphia TRACON
06:32AM 39.8000 -75.5667 72° East 170 196 4,000 -120 Level Philadelphia TRACON
06:33AM 39.8167 -75.5167 67° East 167 192 3,800 -600 Descending Philadelphia TRACON
06:34AM 39.8167 -75.4500 90° East 165 190 2,900 -900 Descending Philadelphia TRACON